sensor_id;sensor_type;location;lat;lon;timestamp;temperature;humidity
21121;DHT22;12519;43.318;21.898;2022-12-22T00:01:59;4.4;89.0
21121;DHT22;12519;43.318;21.898;2022-12-22T00:06:46;4.7;88.0
21121;DHT22;12519;43.318;21.898;2022-12-22T00:11:23;4.7;88.0
21121;DHT22;12519;43.318;21.898;2022-12-22T00:16:00;5.0;87.0
21121;DHT22;12519;43.318;21.898;2022-12-22T00:20:36;5.0;87.0
21121;DHT22;12519;43.318;21.898;2022-12-22T00:25:13;4.8;87.0
21121;DHT22;12519;43.318;21.898;2022-12-22T00:29:51;4.8;87.0
21121;DHT22;12519;43.318;21.898;2022-12-22T00:34:28;4.6;87.0
21121;DHT22;12519;43.318;21.898;2022-12-22T00:39:13;4.6;87.0
21121;DHT22;12519;43.318;21.898;2022-12-22T00:43:49;4.4;88.0
21121;DHT22;12519;43.318;21.898;2022-12-22T00:48:25;4.4;88.0
21121;DHT22;12519;43.318;21.898;2022-12-22T00:53:03;4.4;88.0
21121;DHT22;12519;43.318;21.898;2022-12-22T00:57:40;4.2;89.0
21121;DHT22;12519;43.318;21.898;2022-12-22T01:02:18;4.2;89.0
21121;DHT22;12519;43.318;21.898;2022-12-22T01:06:55;4.0;90.0
21121;DHT22;12519;43.318;21.898;2022-12-22T01:11:34;4.0;90.0
21121;DHT22;12519;43.318;21.898;2022-12-22T01:16:11;3.7;90.0
21121;DHT22;12519;43.318;21.898;2022-12-22T01:20:50;3.7;90.0
21121;DHT22;12519;43.318;21.898;2022-12-22T01:25:29;3.7;91.0
21121;DHT22;12519;43.318;21.898;2022-12-22T01:30:08;3.7;91.0
21121;DHT22;12519;43.318;21.898;2022-12-22T01:34:46;3.7;91.0
21121;DHT22;12519;43.318;21.898;2022-12-22T01:39:23;3.7;91.0
21121;DHT22;12519;43.318;21.898;2022-12-22T01:43:59;4.0;90.0
21121;DHT22;12519;43.318;21.898;2022-12-22T01:48:35;4.0;90.0
21121;DHT22;12519;43.318;21.898;2022-12-22T01:53:15;4.0;90.0
21121;DHT22;12519;43.318;21.898;2022-12-22T01:58:01;4.3;89.0
21121;DHT22;12519;43.318;21.898;2022-12-22T02:02:38;4.3;89.0
21121;DHT22;12519;43.318;21.898;2022-12-22T02:07:27;4.3;89.0
21121;DHT22;12519;43.318;21.898;2022-12-22T02:12:38;4.3;89.0
21121;DHT22;12519;43.318;21.898;2022-12-22T02:17:43;4.3;88.0
21121;DHT22;12519;43.318;21.898;2022-12-22T02:22:45;4.3;88.0
21121;DHT22;12519;43.318;21.898;2022-12-22T02:27:51;4.2;88.0
21121;DHT22;12519;43.318;21.898;2022-12-22T02:32:37;4.2;88.0
21121;DHT22;12519;43.318;21.898;2022-12-22T02:37:27;4.0;88.0
21121;DHT22;12519;43.318;21.898;2022-12-22T02:42:34;4.0;88.0
21121;DHT22;12519;43.318;21.898;2022-12-22T02:47:35;4.0;88.0
21121;DHT22;12519;43.318;21.898;2022-12-22T02:52:35;4.0;88.0
21121;DHT22;12519;43.318;21.898;2022-12-22T02:57:16;4.0;88.0
21121;DHT22;12519;43.318;21.898;2022-12-22T03:01:53;4.0;88.0
21121;DHT22;12519;43.318;21.898;2022-12-22T03:06:29;4.0;88.0
21121;DHT22;12519;43.318;21.898;2022-12-22T03:11:05;4.0;88.0
21121;DHT22;12519;43.318;21.898;2022-12-22T03:15:41;4.1;88.0
21121;DHT22;12519;43.318;21.898;2022-12-22T03:20:17;4.1;88.0
21121;DHT22;12519;43.318;21.898;2022-12-22T03:24:53;4.0;87.0
21121;DHT22;12519;43.318;21.898;2022-12-22T03:29:29;4.0;87.0
21121;DHT22;12519;43.318;21.898;2022-12-22T03:34:06;4.0;87.0
21121;DHT22;12519;43.318;21.898;2022-12-22T03:38:42;4.0;87.0
21121;DHT22;12519;43.318;21.898;2022-12-22T03:43:18;4.0;87.0
21121;DHT22;12519;43.318;21.898;2022-12-22T03:47:55;3.8;88.0
21121;DHT22;12519;43.318;21.898;2022-12-22T03:52:31;3.8;88.0
21121;DHT22;12519;43.318;21.898;2022-12-22T03:57:08;3.5;88.0
21121;DHT22;12519;43.318;21.898;2022-12-22T04:01:46;3.5;88.0
21121;DHT22;12519;43.318;21.898;2022-12-22T04:06:28;3.6;89.0
21121;DHT22;12519;43.318;21.898;2022-12-22T04:11:05;3.6;89.0
21121;DHT22;12519;43.318;21.898;2022-12-22T04:15:41;3.7;89.0
21121;DHT22;12519;43.318;21.898;2022-12-22T04:20:18;3.7;89.0
21121;DHT22;12519;43.318;21.898;2022-12-22T04:24:59;3.6;88.0
21121;DHT22;12519;43.318;21.898;2022-12-22T04:29:35;3.6;88.0
21121;DHT22;12519;43.318;21.898;2022-12-22T04:34:11;3.5;88.0
21121;DHT22;12519;43.318;21.898;2022-12-22T04:38:48;3.5;88.0
21121;DHT22;12519;43.318;21.898;2022-12-22T04:43:24;3.5;88.0
21121;DHT22;12519;43.318;21.898;2022-12-22T04:48:00;3.2;88.0
21121;DHT22;12519;43.318;21.898;2022-12-22T04:52:37;3.2;88.0
21121;DHT22;12519;43.318;21.898;2022-12-22T04:57:13;3.0;89.0
21121;DHT22;12519;43.318;21.898;2022-12-22T05:01:49;3.0;89.0
21121;DHT22;12519;43.318;21.898;2022-12-22T05:06:26;3.0;89.0
21121;DHT22;12519;43.318;21.898;2022-12-22T05:11:03;3.0;89.0
21121;DHT22;12519;43.318;21.898;2022-12-22T05:15:40;2.9;89.0
21121;DHT22;12519;43.318;21.898;2022-12-22T05:20:16;2.9;89.0
21121;DHT22;12519;43.318;21.898;2022-12-22T05:24:54;3.2;90.0
21121;DHT22;12519;43.318;21.898;2022-12-22T05:29:31;3.2;90.0
21121;DHT22;12519;43.318;21.898;2022-12-22T05:34:07;3.2;90.0
21121;DHT22;12519;43.318;21.898;2022-12-22T05:38:43;3.6;90.0
21121;DHT22;12519;43.318;21.898;2022-12-22T05:43:19;3.6;90.0
21121;DHT22;12519;43.318;21.898;2022-12-22T05:47:55;5.2;91.0
21121;DHT22;12519;43.318;21.898;2022-12-22T05:52:31;5.2;91.0
21121;DHT22;12519;43.318;21.898;2022-12-22T05:57:07;6.7;92.0
21121;DHT22;12519;43.318;21.898;2022-12-22T06:01:43;6.7;92.0
21121;DHT22;12519;43.318;21.898;2022-12-22T06:06:19;5.4;93.0
21121;DHT22;12519;43.318;21.898;2022-12-22T06:10:56;5.4;93.0
21121;DHT22;12519;43.318;21.898;2022-12-22T06:15:34;4.0;93.0
21121;DHT22;12519;43.318;21.898;2022-12-22T06:20:11;4.0;93.0
21121;DHT22;12519;43.318;21.898;2022-12-22T06:24:49;4.0;93.0
21121;DHT22;12519;43.318;21.898;2022-12-22T06:29:25;4.0;93.0
21121;DHT22;12519;43.318;21.898;2022-12-22T06:34:02;4.0;93.0
21121;DHT22;12519;43.318;21.898;2022-12-22T06:38:39;3.9;93.0
21121;DHT22;12519;43.318;21.898;2022-12-22T06:43:17;3.9;93.0
21121;DHT22;12519;43.318;21.898;2022-12-22T06:47:54;3.7;94.0
21121;DHT22;12519;43.318;21.898;2022-12-22T06:52:30;3.7;94.0
21121;DHT22;12519;43.318;21.898;2022-12-22T06:57:07;3.5;94.0
21121;DHT22;12519;43.318;21.898;2022-12-22T07:01:43;3.5;94.0
21121;DHT22;12519;43.318;21.898;2022-12-22T07:06:19;3.4;94.0
21121;DHT22;12519;43.318;21.898;2022-12-22T07:10:56;3.4;94.0
21121;DHT22;12519;43.318;21.898;2022-12-22T07:15:32;3.3;95.0
21121;DHT22;12519;43.318;21.898;2022-12-22T07:20:09;3.3;95.0
21121;DHT22;12519;43.318;21.898;2022-12-22T07:24:47;3.3;95.0
21121;DHT22;12519;43.318;21.898;2022-12-22T07:29:24;3.3;95.0
21121;DHT22;12519;43.318;21.898;2022-12-22T07:34:00;3.3;95.0
21121;DHT22;12519;43.318;21.898;2022-12-22T07:47:59;5.4;91.0
21121;DHT22;12519;43.318;21.898;2022-12-22T07:52:36;5.4;91.0
21121;DHT22;12519;43.318;21.898;2022-12-22T07:57:12;5.4;91.0
21121;DHT22;12519;43.318;21.898;2022-12-22T08:01:48;5.4;91.0
21121;DHT22;12519;43.318;21.898;2022-12-22T08:06:25;5.6;90.0
21121;DHT22;12519;43.318;21.898;2022-12-22T08:11:03;5.6;90.0
21121;DHT22;12519;43.318;21.898;2022-12-22T08:15:39;5.8;89.0
21121;DHT22;12519;43.318;21.898;2022-12-22T08:20:15;5.8;89.0
21121;DHT22;12519;43.318;21.898;2022-12-22T08:24:53;5.6;90.0
21121;DHT22;12519;43.318;21.898;2022-12-22T08:29:38;5.6;90.0
21121;DHT22;12519;43.318;21.898;2022-12-22T08:34:16;5.6;90.0
21121;DHT22;12519;43.318;21.898;2022-12-22T08:38:52;5.5;90.0
21121;DHT22;12519;43.318;21.898;2022-12-22T08:43:32;5.5;90.0
21121;DHT22;12519;43.318;21.898;2022-12-22T08:48:08;5.6;90.0
21121;DHT22;12519;43.318;21.898;2022-12-22T08:52:44;5.6;90.0
21121;DHT22;12519;43.318;21.898;2022-12-22T08:57:20;5.8;90.0
21121;DHT22;12519;43.318;21.898;2022-12-22T09:01:57;5.8;90.0
21121;DHT22;12519;43.318;21.898;2022-12-22T09:06:33;5.9;89.0
21121;DHT22;12519;43.318;21.898;2022-12-22T09:11:10;5.9;89.0
21121;DHT22;12519;43.318;21.898;2022-12-22T09:15:46;6.0;89.0
21121;DHT22;12519;43.318;21.898;2022-12-22T09:20:23;6.0;89.0
21121;DHT22;12519;43.318;21.898;2022-12-22T09:24:59;6.4;88.0
21121;DHT22;12519;43.318;21.898;2022-12-22T09:29:36;6.4;88.0
21121;DHT22;12519;43.318;21.898;2022-12-22T09:34:13;6.4;88.0
21121;DHT22;12519;43.318;21.898;2022-12-22T09:38:49;6.9;88.0
21121;DHT22;12519;43.318;21.898;2022-12-22T09:43:29;6.9;88.0
21121;DHT22;12519;43.318;21.898;2022-12-22T09:48:11;7.6;90.0
21121;DHT22;12519;43.318;21.898;2022-12-22T09:52:56;7.6;90.0
21121;DHT22;12519;43.318;21.898;2022-12-22T09:57:37;8.3;92.0
21121;DHT22;12519;43.318;21.898;2022-12-22T10:02:32;8.3;92.0
21121;DHT22;12519;43.318;21.898;2022-12-22T10:07:30;9.3;86.0
21121;DHT22;12519;43.318;21.898;2022-12-22T10:12:18;9.3;86.0
21121;DHT22;12519;43.318;21.898;2022-12-22T10:17:18;10.3;80.0
21121;DHT22;12519;43.318;21.898;2022-12-22T10:21:54;10.3;80.0
21121;DHT22;12519;43.318;21.898;2022-12-22T10:26:33;8.8;83.0
21121;DHT22;12519;43.318;21.898;2022-12-22T10:31:18;8.8;83.0
21121;DHT22;12519;43.318;21.898;2022-12-22T10:35:57;7.2;85.0
21121;DHT22;12519;43.318;21.898;2022-12-22T10:40:43;7.2;85.0
21121;DHT22;12519;43.318;21.898;2022-12-22T10:45:25;7.4;85.0
21121;DHT22;12519;43.318;21.898;2022-12-22T10:50:04;7.4;85.0
21121;DHT22;12519;43.318;21.898;2022-12-22T10:54:43;7.4;85.0
21121;DHT22;12519;43.318;21.898;2022-12-22T10:59:19;7.6;85.0
21121;DHT22;12519;43.318;21.898;2022-12-22T11:04:14;7.6;85.0
21121;DHT22;12519;43.318;21.898;2022-12-22T11:08:50;7.8;84.0
21121;DHT22;12519;43.318;21.898;2022-12-22T11:13:55;7.8;84.0
21121;DHT22;12519;43.318;21.898;2022-12-22T11:19:04;8.0;83.0
21121;DHT22;12519;43.318;21.898;2022-12-22T11:24:06;8.0;83.0
21121;DHT22;12519;43.318;21.898;2022-12-22T11:29:15;8.1;83.0
21121;DHT22;12519;43.318;21.898;2022-12-22T11:34:25;8.1;83.0
21121;DHT22;12519;43.318;21.898;2022-12-22T11:39:14;8.2;83.0
21121;DHT22;12519;43.318;21.898;2022-12-22T11:44:27;8.2;83.0
21121;DHT22;12519;43.318;21.898;2022-12-22T11:49:45;8.2;82.0
21121;DHT22;12519;43.318;21.898;2022-12-22T11:55:15;8.2;82.0
21121;DHT22;12519;43.318;21.898;2022-12-22T12:00:12;8.2;82.0
21121;DHT22;12519;43.318;21.898;2022-12-22T12:05:37;8.2;82.0
21121;DHT22;12519;43.318;21.898;2022-12-22T12:10:47;8.2;82.0
21121;DHT22;12519;43.318;21.898;2022-12-22T12:15:41;8.3;81.0
21121;DHT22;12519;43.318;21.898;2022-12-22T12:20:52;8.3;81.0
21121;DHT22;12519;43.318;21.898;2022-12-22T12:26:06;8.5;81.0
21121;DHT22;12519;43.318;21.898;2022-12-22T12:30:58;8.5;81.0
21121;DHT22;12519;43.318;21.898;2022-12-22T12:35:58;8.7;81.0
21121;DHT22;12519;43.318;21.898;2022-12-22T12:41:01;8.7;81.0
21121;DHT22;12519;43.318;21.898;2022-12-22T12:45:46;9.0;81.0
21121;DHT22;12519;43.318;21.898;2022-12-22T12:50:34;9.0;81.0
21121;DHT22;12519;43.318;21.898;2022-12-22T12:55:31;9.2;80.0
21121;DHT22;12519;43.318;21.898;2022-12-22T13:00:44;9.2;80.0
21121;DHT22;12519;43.318;21.898;2022-12-22T13:05:33;9.2;80.0
21121;DHT22;12519;43.318;21.898;2022-12-22T13:10:23;9.2;80.0
21121;DHT22;12519;43.318;21.898;2022-12-22T13:14:59;9.2;80.0
21121;DHT22;12519;43.318;21.898;2022-12-22T13:19:35;9.3;80.0
21121;DHT22;12519;43.318;21.898;2022-12-22T13:24:23;9.3;80.0
21121;DHT22;12519;43.318;21.898;2022-12-22T13:29:18;9.4;81.0
21121;DHT22;12519;43.318;21.898;2022-12-22T13:34:29;9.4;81.0
21121;DHT22;12519;43.318;21.898;2022-12-22T13:39:14;9.4;81.0
21121;DHT22;12519;43.318;21.898;2022-12-22T13:44:03;9.4;81.0
21121;DHT22;12519;43.318;21.898;2022-12-22T13:48:47;9.2;81.0
21121;DHT22;12519;43.318;21.898;2022-12-22T13:53:33;9.2;81.0
21121;DHT22;12519;43.318;21.898;2022-12-22T13:58:28;9.1;81.0
21121;DHT22;12519;43.318;21.898;2022-12-22T14:03:18;9.1;81.0
21121;DHT22;12519;43.318;21.898;2022-12-22T14:08:02;9.0;82.0
21121;DHT22;12519;43.318;21.898;2022-12-22T14:12:45;9.0;82.0
21121;DHT22;12519;43.318;21.898;2022-12-22T14:17:27;9.0;82.0
21121;DHT22;12519;43.318;21.898;2022-12-22T14:22:13;9.0;82.0
21121;DHT22;12519;43.318;21.898;2022-12-22T14:26:52;9.0;82.0
21121;DHT22;12519;43.318;21.898;2022-12-22T14:31:28;9.0;82.0
21121;DHT22;12519;43.318;21.898;2022-12-22T14:36:17;9.1;82.0
21121;DHT22;12519;43.318;21.898;2022-12-22T14:40:53;9.1;82.0
21121;DHT22;12519;43.318;21.898;2022-12-22T14:45:30;9.1;82.0
21121;DHT22;12519;43.318;21.898;2022-12-22T14:50:19;9.1;82.0
21121;DHT22;12519;43.318;21.898;2022-12-22T14:54:59;9.1;82.0
21121;DHT22;12519;43.318;21.898;2022-12-22T15:09:26;8.4;83.0
21121;DHT22;12519;43.318;21.898;2022-12-22T15:14:04;8.4;83.0
21121;DHT22;12519;43.318;21.898;2022-12-22T15:18:46;8.4;83.0
21121;DHT22;12519;43.318;21.898;2022-12-22T15:23:23;8.4;83.0
21121;DHT22;12519;43.318;21.898;2022-12-22T15:27:59;8.3;84.0
21121;DHT22;12519;43.318;21.898;2022-12-22T15:32:36;8.3;84.0
21121;DHT22;12519;43.318;21.898;2022-12-22T15:37:12;8.2;86.0
21121;DHT22;12519;43.318;21.898;2022-12-22T15:41:48;8.2;86.0
21121;DHT22;12519;43.318;21.898;2022-12-22T15:46:25;8.1;86.0
21121;DHT22;12519;43.318;21.898;2022-12-22T15:51:06;8.1;86.0
21121;DHT22;12519;43.318;21.898;2022-12-22T15:55:54;8.1;86.0
21121;DHT22;12519;43.318;21.898;2022-12-22T16:00:31;8.1;86.0
21121;DHT22;12519;43.318;21.898;2022-12-22T16:05:11;8.1;86.0
21121;DHT22;12519;43.318;21.898;2022-12-22T16:09:49;8.1;86.0
21121;DHT22;12519;43.318;21.898;2022-12-22T16:14:25;8.1;86.0
21121;DHT22;12519;43.318;21.898;2022-12-22T16:19:01;8.1;86.0
21121;DHT22;12519;43.318;21.898;2022-12-22T16:23:46;8.1;86.0
21121;DHT22;12519;43.318;21.898;2022-12-22T16:28:24;8.0;86.0
21121;DHT22;12519;43.318;21.898;2022-12-22T16:33:00;8.0;86.0
21121;DHT22;12519;43.318;21.898;2022-12-22T16:37:36;8.0;86.0
21121;DHT22;12519;43.318;21.898;2022-12-22T16:42:17;8.0;86.0
21121;DHT22;12519;43.318;21.898;2022-12-22T16:46:56;8.0;86.0
21121;DHT22;12519;43.318;21.898;2022-12-22T16:51:33;8.0;86.0
21121;DHT22;12519;43.318;21.898;2022-12-22T17:10:22;7.6;86.0
21121;DHT22;12519;43.318;21.898;2022-12-22T17:15:01;7.6;86.0
21121;DHT22;12519;43.318;21.898;2022-12-22T17:19:37;7.6;86.0
21121;DHT22;12519;43.318;21.898;2022-12-22T17:24:20;7.6;86.0
21121;DHT22;12519;43.318;21.898;2022-12-22T17:28:58;7.6;88.0
21121;DHT22;12519;43.318;21.898;2022-12-22T17:33:35;7.6;88.0
21121;DHT22;12519;43.318;21.898;2022-12-22T17:38:18;7.7;90.0
21121;DHT22;12519;43.318;21.898;2022-12-22T17:42:54;7.7;90.0
21121;DHT22;12519;43.318;21.898;2022-12-22T17:47:30;8.0;89.0
21121;DHT22;12519;43.318;21.898;2022-12-22T17:52:17;8.0;89.0
21121;DHT22;12519;43.318;21.898;2022-12-22T17:57:01;8.3;89.0
21121;DHT22;12519;43.318;21.898;2022-12-22T18:01:38;8.3;89.0
21121;DHT22;12519;43.318;21.898;2022-12-22T18:06:16;7.9;89.0
21121;DHT22;12519;43.318;21.898;2022-12-22T18:10:53;7.9;89.0
21121;DHT22;12519;43.318;21.898;2022-12-22T18:15:29;7.9;89.0
21121;DHT22;12519;43.318;21.898;2022-12-22T18:20:13;7.5;89.0
21121;DHT22;12519;43.318;21.898;2022-12-22T18:24:53;7.5;89.0
21121;DHT22;12519;43.318;21.898;2022-12-22T18:29:30;7.4;89.0
21121;DHT22;12519;43.318;21.898;2022-12-22T18:34:06;7.4;89.0
21121;DHT22;12519;43.318;21.898;2022-12-22T18:38:45;7.2;89.0
21121;DHT22;12519;43.318;21.898;2022-12-22T18:43:22;7.2;89.0
21121;DHT22;12519;43.318;21.898;2022-12-22T18:47:58;7.2;89.0
21121;DHT22;12519;43.318;21.898;2022-12-22T18:52:35;7.2;89.0
21121;DHT22;12519;43.318;21.898;2022-12-22T18:57:12;7.3;89.0
21121;DHT22;12519;43.318;21.898;2022-12-22T19:01:48;7.3;89.0
21121;DHT22;12519;43.318;21.898;2022-12-22T19:06:24;7.2;89.0
21121;DHT22;12519;43.318;21.898;2022-12-22T19:11:04;7.2;89.0
21121;DHT22;12519;43.318;21.898;2022-12-22T19:15:42;7.2;89.0
21121;DHT22;12519;43.318;21.898;2022-12-22T19:20:19;7.0;89.0
21121;DHT22;12519;43.318;21.898;2022-12-22T19:24:57;7.0;89.0
21121;DHT22;12519;43.318;21.898;2022-12-22T19:29:33;6.9;90.0
21121;DHT22;12519;43.318;21.898;2022-12-22T19:34:14;6.9;90.0
21121;DHT22;12519;43.318;21.898;2022-12-22T19:38:55;6.8;90.0
21121;DHT22;12519;43.318;21.898;2022-12-22T19:43:33;6.8;90.0
21121;DHT22;12519;43.318;21.898;2022-12-22T19:48:15;6.6;91.0
21121;DHT22;12519;43.318;21.898;2022-12-22T19:52:56;6.6;91.0
21121;DHT22;12519;43.318;21.898;2022-12-22T19:57:33;6.3;92.0
21121;DHT22;12519;43.318;21.898;2022-12-22T20:02:23;6.3;92.0
21121;DHT22;12519;43.318;21.898;2022-12-22T20:07:07;6.4;91.0
21121;DHT22;12519;43.318;21.898;2022-12-22T20:11:50;6.4;91.0
21121;DHT22;12519;43.318;21.898;2022-12-22T20:16:26;6.6;90.0
21121;DHT22;12519;43.318;21.898;2022-12-22T20:21:03;6.6;90.0
21121;DHT22;12519;43.318;21.898;2022-12-22T20:25:50;6.6;90.0
21121;DHT22;12519;43.318;21.898;2022-12-22T20:30:32;6.7;91.0
21121;DHT22;12519;43.318;21.898;2022-12-22T20:35:09;6.7;91.0
21121;DHT22;12519;43.318;21.898;2022-12-22T20:39:45;6.8;92.0
21121;DHT22;12519;43.318;21.898;2022-12-22T20:44:21;6.8;92.0
21121;DHT22;12519;43.318;21.898;2022-12-22T20:48:59;6.8;91.0
21121;DHT22;12519;43.318;21.898;2022-12-22T20:53:37;6.8;91.0
21121;DHT22;12519;43.318;21.898;2022-12-22T20:58:15;6.9;91.0
21121;DHT22;12519;43.318;21.898;2022-12-22T21:02:58;6.9;91.0
21121;DHT22;12519;43.318;21.898;2022-12-22T21:07:34;6.9;91.0
21121;DHT22;12519;43.318;21.898;2022-12-22T21:12:10;6.9;91.0
21121;DHT22;12519;43.318;21.898;2022-12-22T21:16:47;6.9;92.0
21121;DHT22;12519;43.318;21.898;2022-12-22T21:21:23;6.9;92.0
21121;DHT22;12519;43.318;21.898;2022-12-22T21:25:59;6.9;92.0
21121;DHT22;12519;43.318;21.898;2022-12-22T21:30:35;7.0;92.0
21121;DHT22;12519;43.318;21.898;2022-12-22T21:35:12;7.0;92.0
21121;DHT22;12519;43.318;21.898;2022-12-22T21:39:50;7.2;92.0
21121;DHT22;12519;43.318;21.898;2022-12-22T21:44:26;7.2;92.0
21121;DHT22;12519;43.318;21.898;2022-12-22T21:49:03;7.2;92.0
21121;DHT22;12519;43.318;21.898;2022-12-22T21:53:39;7.2;92.0
21121;DHT22;12519;43.318;21.898;2022-12-22T22:07:27;6.8;92.0
21121;DHT22;12519;43.318;21.898;2022-12-22T22:12:04;6.8;92.0
21121;DHT22;12519;43.318;21.898;2022-12-22T22:16:39;6.8;92.0
21121;DHT22;12519;43.318;21.898;2022-12-22T22:21:16;6.8;92.0
21121;DHT22;12519;43.318;21.898;2022-12-22T22:25:56;6.8;92.0
21121;DHT22;12519;43.318;21.898;2022-12-22T22:30:32;7.0;92.0
21121;DHT22;12519;43.318;21.898;2022-12-22T22:35:10;7.0;92.0
21121;DHT22;12519;43.318;21.898;2022-12-22T22:39:49;7.2;91.0
21121;DHT22;12519;43.318;21.898;2022-12-22T22:44:25;7.2;91.0
21121;DHT22;12519;43.318;21.898;2022-12-22T22:49:02;7.2;91.0
21121;DHT22;12519;43.318;21.898;2022-12-22T22:53:38;7.2;91.0
21121;DHT22;12519;43.318;21.898;2022-12-22T22:58:14;7.3;91.0
21121;DHT22;12519;43.318;21.898;2022-12-22T23:02:50;7.3;91.0
21121;DHT22;12519;43.318;21.898;2022-12-22T23:07:26;7.2;91.0
21121;DHT22;12519;43.318;21.898;2022-12-22T23:12:03;7.2;91.0
21121;DHT22;12519;43.318;21.898;2022-12-22T23:16:40;7.2;91.0
21121;DHT22;12519;43.318;21.898;2022-12-22T23:21:16;7.2;91.0
21121;DHT22;12519;43.318;21.898;2022-12-22T23:25:52;7.2;91.0
21121;DHT22;12519;43.318;21.898;2022-12-22T23:30:28;7.2;91.0
21121;DHT22;12519;43.318;21.898;2022-12-22T23:35:04;7.2;91.0
21121;DHT22;12519;43.318;21.898;2022-12-22T23:39:40;7.2;91.0
21121;DHT22;12519;43.318;21.898;2022-12-22T23:44:16;7.2;91.0
21121;DHT22;12519;43.318;21.898;2022-12-22T23:48:55;7.1;91.0
21121;DHT22;12519;43.318;21.898;2022-12-22T23:53:32;7.1;91.0
21121;DHT22;12519;43.318;21.898;2022-12-22T23:58:08;7.0;92.0
